createdAt,value
2018-09-22T00:00:09.361Z,51.1
2018-09-22T00:05:11.836Z,51.1
2018-09-22T00:10:14.216Z,51.1
2018-09-22T00:15:16.729Z,51
2018-09-22T00:20:19.095Z,51
2018-09-22T00:25:21.586Z,50.9
2018-09-22T00:30:24.025Z,51
2018-09-22T00:35:26.503Z,50.7
2018-09-22T00:40:29.196Z,50.6
2018-09-22T00:45:31.333Z,50.8
2018-09-22T00:50:34.334Z,50.9
2018-09-22T00:55:36.495Z,50.8
2018-09-22T01:00:38.689Z,50.9
2018-09-22T01:05:41.048Z,50.9
2018-09-22T01:10:43.487Z,51
2018-09-22T01:15:45.994Z,51.2
2018-09-22T01:20:48.377Z,51.4
2018-09-22T01:25:50.834Z,51.7
2018-09-22T01:30:53.260Z,52
2018-09-22T01:35:55.733Z,52.1
2018-09-22T01:40:58.285Z,52.2
2018-09-22T01:46:00.610Z,52.5
2018-09-22T01:51:03.037Z,52.5
2018-09-22T01:56:05.462Z,52.5
2018-09-22T02:01:07.943Z,52.4
2018-09-22T02:06:10.369Z,52.4
2018-09-22T02:11:12.938Z,52.4
2018-09-22T02:16:15.397Z,52.3
2018-09-22T02:21:17.720Z,52.4
2018-09-22T02:26:20.134Z,52.3
2018-09-22T02:31:22.551Z,52.3
2018-09-22T02:36:25.567Z,52.2
2018-09-22T02:41:27.412Z,52.2
2018-09-22T02:46:29.872Z,52.2
2018-09-22T02:51:32.300Z,52.1
2018-09-22T02:56:34.765Z,52.1
2018-09-22T03:01:37.263Z,51.9
2018-09-22T03:06:39.662Z,51.9
2018-09-22T03:11:42.124Z,51.9
2018-09-22T03:16:44.551Z,51.8
2018-09-22T03:21:46.954Z,51.8
2018-09-22T03:26:49.426Z,51.8
2018-09-22T03:31:51.807Z,52
2018-09-22T03:36:54.300Z,52
2018-09-22T03:41:56.703Z,52
2018-09-22T03:46:59.661Z,52.1
2018-09-22T03:52:01.643Z,52.2
2018-09-22T03:57:04.025Z,52.3
2018-09-22T04:02:06.569Z,52.4
2018-09-22T04:07:14.022Z,52.5
2018-09-22T04:12:11.376Z,52.6
2018-09-22T04:17:13.809Z,52.7
2018-09-22T04:22:16.233Z,53.1
2018-09-22T04:27:18.755Z,53
2018-09-22T04:32:21.413Z,53.1
2018-09-22T04:37:23.600Z,53.3
2018-09-22T04:42:26.083Z,53.1
2018-09-22T04:47:28.431Z,53.4
2018-09-22T04:52:30.853Z,53.4
2018-09-22T04:57:33.325Z,54.4
2018-09-22T05:02:35.725Z,54.4
2018-09-22T05:07:38.170Z,54.5
2018-09-22T05:12:40.614Z,54.5
2018-09-22T05:17:43.260Z,54.5
2018-09-22T05:22:45.477Z,54.4
2018-09-22T05:27:47.931Z,54.5
2018-09-22T05:32:50.509Z,53.6
2018-09-22T05:37:52.800Z,54.4
2018-09-22T05:42:55.247Z,54.4
2018-09-22T05:47:57.852Z,54.5
2018-09-22T05:53:00.124Z,54.5
2018-09-22T05:58:02.677Z,54.4
2018-09-22T06:03:05.023Z,54.5
2018-09-22T06:08:07.669Z,54.5
2018-09-22T06:13:10.096Z,54.5
2018-09-22T06:18:12.359Z,54.6
2018-09-22T06:23:14.858Z,53.7
2018-09-22T06:28:17.230Z,53.6
2018-09-22T06:33:19.658Z,53.6
2018-09-22T06:38:22.237Z,53.5
2018-09-22T06:43:24.534Z,53.2
2018-09-22T06:48:26.969Z,53
2018-09-22T06:53:29.540Z,53.2
2018-09-22T06:58:31.845Z,52.3
2018-09-22T07:03:34.284Z,52
2018-09-22T07:08:36.755Z,51.6
2018-09-22T07:13:39.220Z,51.6
2018-09-22T07:18:41.712Z,51.3
2018-09-22T07:23:44.046Z,51.3
2018-09-22T07:28:46.501Z,51.3
2018-09-22T07:33:48.933Z,51.2
2018-09-22T07:38:51.370Z,51.1
2018-09-22T07:43:53.818Z,50.9
2018-09-22T07:48:56.246Z,50.7
2018-09-22T07:53:58.680Z,50.6
2018-09-22T07:59:01.131Z,50.4
2018-09-22T08:04:03.598Z,50.9
2018-09-22T08:09:06.070Z,50.7
2018-09-22T08:14:08.453Z,50
2018-09-22T08:19:10.914Z,50.5
2018-09-22T08:24:13.332Z,50
2018-09-22T08:29:15.774Z,50.3
2018-09-22T08:34:18.268Z,49.4
2018-09-22T08:39:20.684Z,50.1
2018-09-22T08:44:23.134Z,50
2018-09-22T08:49:25.647Z,49.3
2018-09-22T08:54:27.969Z,49.9
2018-09-22T08:59:30.420Z,49.6
2018-09-22T09:04:32.866Z,48.9
2018-09-22T09:09:35.342Z,49.3
2018-09-22T09:14:37.784Z,49.8
2018-09-22T09:19:40.283Z,48.3
2018-09-22T09:24:42.640Z,48.1
2018-09-22T09:29:45.066Z,48.8
2018-09-22T09:34:47.508Z,47.1
2018-09-22T09:39:49.981Z,46.8
2018-09-22T09:44:52.512Z,45.7
2018-09-22T09:49:54.833Z,46.5
2018-09-22T09:54:57.313Z,45.7
2018-09-22T09:59:59.711Z,46.6
2018-09-22T10:05:02.197Z,46
2018-09-22T10:10:04.570Z,45.6
2018-09-22T10:15:07.079Z,45
2018-09-22T10:20:09.633Z,45.2
2018-09-22T10:25:11.918Z,44.6
2018-09-22T10:30:14.366Z,45.3
2018-09-22T10:35:16.798Z,43.9
2018-09-22T10:40:19.276Z,44.3
2018-09-22T10:45:21.678Z,44.2
2018-09-22T10:50:24.234Z,42.7
2018-09-22T10:55:26.552Z,42.3
2018-09-22T11:00:29.008Z,42.1
2018-09-22T11:05:31.422Z,42.4
2018-09-22T11:10:33.861Z,42.6
2018-09-22T11:15:36.384Z,41.8
2018-09-22T11:20:38.776Z,41.5
2018-09-22T11:25:41.191Z,41.8
2018-09-22T11:30:43.639Z,41.4
2018-09-22T11:35:46.049Z,41.7
2018-09-22T11:40:48.705Z,40.7
2018-09-22T11:50:53.394Z,40.9
2018-09-22T11:55:55.822Z,40.6
2018-09-22T12:00:59.064Z,37.7
2018-09-22T12:06:00.923Z,37.9
2018-09-22T12:11:03.162Z,37.8
2018-09-22T12:16:05.819Z,38.4
2018-09-22T12:21:08.044Z,36.6
2018-09-22T12:26:10.516Z,37.7
2018-09-22T12:31:12.937Z,36.5
2018-09-22T12:36:15.707Z,37.8
2018-09-22T12:41:17.806Z,37.6
2018-09-22T12:46:20.259Z,38.5
2018-09-22T12:51:23.101Z,35.3
2018-09-22T12:56:25.134Z,35.7
2018-09-22T13:01:27.558Z,36.4
2018-09-22T13:06:30.011Z,36.7
2018-09-22T13:11:32.435Z,37.4
2018-09-22T13:16:34.927Z,38.3
2018-09-22T13:21:37.327Z,38.5
2018-09-22T13:26:39.845Z,37.2
2018-09-22T13:31:42.194Z,38.2
2018-09-22T13:36:44.650Z,35.3
2018-09-22T13:41:47.079Z,34.7
2018-09-22T13:46:49.537Z,34.2
2018-09-22T13:51:51.962Z,34.7
2018-09-22T13:56:54.472Z,34.6
2018-09-22T14:01:56.964Z,34.6
2018-09-22T14:06:59.299Z,35.3
2018-09-22T14:12:01.754Z,35.9
2018-09-22T14:17:04.146Z,36
2018-09-22T14:22:06.769Z,36.5
2018-09-22T14:27:09.049Z,35.4
2018-09-22T14:32:11.506Z,35.6
2018-09-22T14:37:13.914Z,35.3
2018-09-22T14:42:16.359Z,35.5
2018-09-22T14:47:18.869Z,35.3
2018-09-22T14:52:21.318Z,35.7
2018-09-22T14:57:23.833Z,35.5
2018-09-22T15:02:26.125Z,35.3
2018-09-22T15:07:28.592Z,35.3
2018-09-22T15:12:31.027Z,35.8
2018-09-22T15:17:33.610Z,36.1
2018-09-22T15:22:35.933Z,36.6
2018-09-22T15:27:38.334Z,36.8
2018-09-22T15:32:40.763Z,37.1
2018-09-22T15:37:43.235Z,37.3
2018-09-22T15:42:45.643Z,37.3
2018-09-22T15:47:48.092Z,37.2
2018-09-22T15:52:50.560Z,37.2
2018-09-22T15:57:53.010Z,37.1
2018-09-22T16:02:55.448Z,37.5
2018-09-22T16:07:57.850Z,37.8
2018-09-22T16:13:00.315Z,37.7
2018-09-22T16:18:02.757Z,37.7
2018-09-22T16:23:05.284Z,38
2018-09-22T16:28:07.606Z,37.9
2018-09-22T16:33:10.129Z,38.2
2018-09-22T16:38:12.603Z,38.3
2018-09-22T16:43:14.966Z,38.4
2018-09-22T16:48:17.392Z,38.5
2018-09-22T16:53:19.801Z,38.6
2018-09-22T16:58:22.542Z,38.8
2018-09-22T17:03:24.705Z,39.1
2018-09-22T17:08:27.228Z,39.3
2018-09-22T17:13:29.591Z,39.5
2018-09-22T17:18:32.085Z,39.8
2018-09-22T17:23:34.453Z,40
2018-09-22T17:28:36.875Z,40.3
2018-09-22T17:33:39.331Z,40.6
2018-09-22T17:38:41.783Z,40.9
2018-09-22T17:43:44.199Z,41.1
2018-09-22T17:48:46.638Z,41.3
2018-09-22T17:53:49.272Z,41.4
2018-09-22T17:58:51.664Z,42
2018-09-22T18:03:53.967Z,42
2018-09-22T18:08:56.420Z,42.2
2018-09-22T18:13:58.902Z,42.2
2018-09-22T18:19:01.314Z,42.4
2018-09-22T18:24:03.748Z,42.5
2018-09-22T18:29:06.363Z,42.7
2018-09-22T18:34:08.701Z,42.8
2018-09-22T18:39:11.048Z,43.1
2018-09-22T18:44:13.477Z,43.2
2018-09-22T18:49:15.979Z,43.4
2018-09-22T18:54:18.488Z,43.5
2018-09-22T18:59:20.849Z,43.4
2018-09-22T19:04:23.325Z,43.5
2018-09-22T19:09:25.767Z,43.5
2018-09-22T19:14:28.134Z,43.6
2018-09-22T19:19:30.697Z,43.7
2018-09-22T19:24:33.022Z,43.7
2018-09-22T19:29:35.572Z,43.9
2018-09-22T19:34:38.049Z,44
2018-09-22T19:39:40.343Z,44.1
2018-09-22T19:44:42.766Z,44.2
2018-09-22T19:49:45.258Z,44.3
2018-09-22T19:54:47.732Z,44.5
2018-09-22T19:59:50.120Z,44.5
2018-09-22T20:04:52.561Z,44.8
2018-09-22T20:09:54.983Z,44.9
2018-09-22T20:14:57.421Z,45
2018-09-22T20:19:59.922Z,45
2018-09-22T20:25:02.330Z,45
2018-09-22T20:30:04.924Z,45
2018-09-22T20:35:07.275Z,45.2
2018-09-22T20:40:09.620Z,45.3
2018-09-22T20:45:12.082Z,45.2
2018-09-22T20:50:14.522Z,45.3
2018-09-22T20:55:16.965Z,45.2
2018-09-22T21:00:19.623Z,45.4
2018-09-22T21:05:21.836Z,45.6
2018-09-22T21:10:24.308Z,45.6
2018-09-22T21:15:27.268Z,45.6
2018-09-22T21:20:29.157Z,45.8
2018-09-22T21:25:31.588Z,45.7
2018-09-22T21:30:34.050Z,45.7
2018-09-22T21:35:36.447Z,45.9
2018-09-22T21:40:38.888Z,46
2018-09-22T21:45:41.528Z,46.1
2018-09-22T21:50:43.821Z,46.2
2018-09-22T21:55:46.220Z,46.2
2018-09-22T22:00:48.796Z,46.4
2018-09-22T22:05:51.175Z,46.4
2018-09-22T22:10:53.710Z,46.5
2018-09-22T22:15:56.073Z,46.5
2018-09-22T22:20:58.417Z,46.4
2018-09-22T22:26:00.871Z,46.4
2018-09-22T22:31:03.290Z,46.3
2018-09-22T22:36:05.905Z,46.1
2018-09-22T22:41:08.160Z,46.1
2018-09-22T22:46:10.611Z,46.1
2018-09-22T22:51:13.078Z,46.2
2018-09-22T22:56:15.511Z,46.3
2018-09-22T23:01:17.994Z,46.4
2018-09-22T23:06:20.470Z,46.7
2018-09-22T23:11:22.831Z,46.8
2018-09-22T23:16:25.267Z,47.2
2018-09-22T23:21:27.727Z,47.8
2018-09-22T23:26:30.133Z,50.6
2018-09-22T23:31:32.598Z,51.5
2018-09-22T23:36:35.011Z,51.8
2018-09-22T23:41:37.467Z,52.6
2018-09-22T23:46:39.943Z,52.7
2018-09-22T23:51:42.337Z,52.5
2018-09-22T23:56:44.772Z,52.7
